Terminal Aerodrome Forecast
Issued by NWS

Home | Current Version | Previous Version | Graphics & Text | Print | Product List | Glossary On
Versions: 1 2 3 4 5 6 7 8 9 10 11 12 13 14 15
000
FTUS43 KBIS 221100
TAFMOT
TAF
KMOT 221123Z 2212/2312 21012KT P6SM SCT100 BKN250
     FM221400 21015G25KT P6SM BKN120 OVC250
     FM221800 23020G28KT P6SM BKN040 OVC100
     FM230000 24014G20KT P6SM BKN100
     FM230800 26010KT P6SM SKC=

USA.gov is the U.S. government's official web portal to all federal, state and local government web resources and services.